sensor_id;sensor_type;location;lat;lon;timestamp;P1;durP1;ratioP1;P2;durP2;ratioP2
62848;SDS011;48941;49.516;8.286;2022-11-12T00:01:02;38.03;;;11.30;;
62848;SDS011;48941;49.516;8.286;2022-11-12T00:03:30;29.67;;;11.05;;
62848;SDS011;48941;49.516;8.286;2022-11-12T00:05:59;23.85;;;10.68;;
62848;SDS011;48941;49.516;8.286;2022-11-12T00:08:27;23.50;;;10.25;;
62848;SDS011;48941;49.516;8.286;2022-11-12T00:10:55;27.25;;;9.95;;
62848;SDS011;48941;49.516;8.286;2022-11-12T00:13:23;26.13;;;10.35;;
62848;SDS011;48941;49.516;8.286;2022-11-12T00:15:51;24.88;;;9.88;;
62848;SDS011;48941;49.516;8.286;2022-11-12T00:18:19;24.13;;;9.88;;
62848;SDS011;48941;49.516;8.286;2022-11-12T00:20:47;26.52;;;9.90;;
62848;SDS011;48941;49.516;8.286;2022-11-12T00:23:16;25.42;;;9.38;;
62848;SDS011;48941;49.516;8.286;2022-11-12T00:25:44;31.10;;;10.13;;
62848;SDS011;48941;49.516;8.286;2022-11-12T00:28:12;42.15;;;10.68;;
62848;SDS011;48941;49.516;8.286;2022-11-12T00:30:40;40.42;;;9.70;;
62848;SDS011;48941;49.516;8.286;2022-11-12T00:33:07;44.35;;;11.23;;
62848;SDS011;48941;49.516;8.286;2022-11-12T00:35:35;28.35;;;10.60;;
62848;SDS011;48941;49.516;8.286;2022-11-12T00:38:03;35.90;;;10.15;;
62848;SDS011;48941;49.516;8.286;2022-11-12T00:40:32;26.40;;;10.70;;
62848;SDS011;48941;49.516;8.286;2022-11-12T00:43:00;24.88;;;12.07;;
62848;SDS011;48941;49.516;8.286;2022-11-12T00:45:30;33.67;;;12.77;;
62848;SDS011;48941;49.516;8.286;2022-11-12T00:47:58;24.88;;;11.55;;
62848;SDS011;48941;49.516;8.286;2022-11-12T00:50:26;26.75;;;11.70;;
62848;SDS011;48941;49.516;8.286;2022-11-12T00:52:54;27.70;;;12.25;;
62848;SDS011;48941;49.516;8.286;2022-11-12T00:55:22;32.60;;;11.43;;
62848;SDS011;48941;49.516;8.286;2022-11-12T00:57:51;29.58;;;11.52;;
62848;SDS011;48941;49.516;8.286;2022-11-12T01:00:19;26.30;;;10.73;;
62848;SDS011;48941;49.516;8.286;2022-11-12T01:02:47;26.35;;;10.60;;
62848;SDS011;48941;49.516;8.286;2022-11-12T01:05:17;23.20;;;11.45;;
62848;SDS011;48941;49.516;8.286;2022-11-12T01:07:45;25.23;;;10.23;;
62848;SDS011;48941;49.516;8.286;2022-11-12T01:10:20;23.98;;;10.25;;
62848;SDS011;48941;49.516;8.286;2022-11-12T01:12:48;22.17;;;10.25;;
62848;SDS011;48941;49.516;8.286;2022-11-12T01:15:17;24.02;;;10.32;;
62848;SDS011;48941;49.516;8.286;2022-11-12T01:17:45;28.63;;;10.90;;
62848;SDS011;48941;49.516;8.286;2022-11-12T01:20:13;30.58;;;10.27;;
62848;SDS011;48941;49.516;8.286;2022-11-12T01:22:41;24.27;;;10.55;;
62848;SDS011;48941;49.516;8.286;2022-11-12T01:25:09;30.95;;;10.75;;
62848;SDS011;48941;49.516;8.286;2022-11-12T01:27:37;45.38;;;10.60;;
62848;SDS011;48941;49.516;8.286;2022-11-12T01:30:05;23.95;;;10.70;;
62848;SDS011;48941;49.516;8.286;2022-11-12T01:32:35;22.77;;;10.63;;
62848;SDS011;48941;49.516;8.286;2022-11-12T01:35:03;24.55;;;10.45;;
62848;SDS011;48941;49.516;8.286;2022-11-12T01:37:31;35.20;;;10.52;;
62848;SDS011;48941;49.516;8.286;2022-11-12T01:39:59;28.75;;;11.05;;
62848;SDS011;48941;49.516;8.286;2022-11-12T01:42:28;25.38;;;11.52;;
62848;SDS011;48941;49.516;8.286;2022-11-12T01:44:57;32.35;;;10.98;;
62848;SDS011;48941;49.516;8.286;2022-11-12T01:47:26;33.22;;;11.05;;
62848;SDS011;48941;49.516;8.286;2022-11-12T01:50:00;38.75;;;10.73;;
62848;SDS011;48941;49.516;8.286;2022-11-12T01:52:38;30.15;;;10.77;;
62848;SDS011;48941;49.516;8.286;2022-11-12T01:55:12;38.72;;;10.48;;
62848;SDS011;48941;49.516;8.286;2022-11-12T01:57:44;32.35;;;10.93;;
62848;SDS011;48941;49.516;8.286;2022-11-12T02:00:15;25.15;;;10.75;;
62848;SDS011;48941;49.516;8.286;2022-11-12T02:02:44;25.95;;;10.68;;
62848;SDS011;48941;49.516;8.286;2022-11-12T02:05:17;35.65;;;11.07;;
62848;SDS011;48941;49.516;8.286;2022-11-12T02:07:46;34.92;;;10.35;;
62848;SDS011;48941;49.516;8.286;2022-11-12T02:10:16;28.17;;;9.95;;
62848;SDS011;48941;49.516;8.286;2022-11-12T02:12:44;38.20;;;10.10;;
62848;SDS011;48941;49.516;8.286;2022-11-12T02:15:29;25.30;;;9.73;;
62848;SDS011;48941;49.516;8.286;2022-11-12T02:17:57;24.25;;;10.30;;
62848;SDS011;48941;49.516;8.286;2022-11-12T02:20:27;36.20;;;10.60;;
62848;SDS011;48941;49.516;8.286;2022-11-12T02:23:01;36.15;;;9.80;;
62848;SDS011;48941;49.516;8.286;2022-11-12T02:25:29;38.03;;;9.68;;
62848;SDS011;48941;49.516;8.286;2022-11-12T02:27:57;33.80;;;9.25;;
62848;SDS011;48941;49.516;8.286;2022-11-12T02:30:32;24.08;;;10.43;;
62848;SDS011;48941;49.516;8.286;2022-11-12T02:33:04;26.33;;;9.88;;
62848;SDS011;48941;49.516;8.286;2022-11-12T02:35:31;32.33;;;9.95;;
62848;SDS011;48941;49.516;8.286;2022-11-12T02:38:01;44.08;;;10.48;;
62848;SDS011;48941;49.516;8.286;2022-11-12T02:40:28;26.63;;;9.88;;
62848;SDS011;48941;49.516;8.286;2022-11-12T02:42:56;28.05;;;10.57;;
62848;SDS011;48941;49.516;8.286;2022-11-12T02:45:25;28.23;;;10.32;;
62848;SDS011;48941;49.516;8.286;2022-11-12T02:47:53;26.10;;;10.27;;
62848;SDS011;48941;49.516;8.286;2022-11-12T02:50:20;36.92;;;10.20;;
62848;SDS011;48941;49.516;8.286;2022-11-12T02:52:48;26.70;;;10.05;;
62848;SDS011;48941;49.516;8.286;2022-11-12T02:55:17;31.17;;;10.30;;
62848;SDS011;48941;49.516;8.286;2022-11-12T02:57:45;38.90;;;10.18;;
62848;SDS011;48941;49.516;8.286;2022-11-12T03:00:13;34.85;;;9.95;;
62848;SDS011;48941;49.516;8.286;2022-11-12T03:02:41;28.27;;;10.30;;
62848;SDS011;48941;49.516;8.286;2022-11-12T03:05:24;28.90;;;9.65;;
62848;SDS011;48941;49.516;8.286;2022-11-12T03:07:55;27.25;;;9.68;;
62848;SDS011;48941;49.516;8.286;2022-11-12T03:10:26;24.58;;;9.35;;
62848;SDS011;48941;49.516;8.286;2022-11-12T03:12:55;21.58;;;9.13;;
62848;SDS011;48941;49.516;8.286;2022-11-12T03:15:24;24.38;;;9.23;;
62848;SDS011;48941;49.516;8.286;2022-11-12T03:17:51;23.25;;;9.15;;
62848;SDS011;48941;49.516;8.286;2022-11-12T03:20:19;25.42;;;9.90;;
62848;SDS011;48941;49.516;8.286;2022-11-12T03:22:53;21.33;;;8.98;;
62848;SDS011;48941;49.516;8.286;2022-11-12T03:25:22;29.90;;;9.65;;
62848;SDS011;48941;49.516;8.286;2022-11-12T03:27:58;27.67;;;9.05;;
62848;SDS011;48941;49.516;8.286;2022-11-12T03:30:27;23.08;;;9.45;;
62848;SDS011;48941;49.516;8.286;2022-11-12T03:32:56;27.25;;;9.95;;
62848;SDS011;48941;49.516;8.286;2022-11-12T03:35:24;28.25;;;9.23;;
62848;SDS011;48941;49.516;8.286;2022-11-12T03:37:53;30.27;;;9.32;;
62848;SDS011;48941;49.516;8.286;2022-11-12T03:40:20;26.88;;;9.50;;
62848;SDS011;48941;49.516;8.286;2022-11-12T03:42:49;21.00;;;8.57;;
62848;SDS011;48941;49.516;8.286;2022-11-12T03:45:19;21.23;;;9.00;;
62848;SDS011;48941;49.516;8.286;2022-11-12T03:47:49;22.92;;;9.52;;
62848;SDS011;48941;49.516;8.286;2022-11-12T03:50:18;20.25;;;8.23;;
62848;SDS011;48941;49.516;8.286;2022-11-12T03:52:48;19.75;;;9.00;;
62848;SDS011;48941;49.516;8.286;2022-11-12T03:55:18;21.50;;;9.65;;
62848;SDS011;48941;49.516;8.286;2022-11-12T03:57:47;27.95;;;9.68;;
62848;SDS011;48941;49.516;8.286;2022-11-12T04:00:16;20.38;;;9.27;;
62848;SDS011;48941;49.516;8.286;2022-11-12T04:02:47;26.52;;;10.18;;
62848;SDS011;48941;49.516;8.286;2022-11-12T04:05:16;24.30;;;9.32;;
62848;SDS011;48941;49.516;8.286;2022-11-12T04:08:01;18.15;;;8.65;;
62848;SDS011;48941;49.516;8.286;2022-11-12T04:10:48;21.33;;;9.52;;
62848;SDS011;48941;49.516;8.286;2022-11-12T04:13:16;24.00;;;9.75;;
62848;SDS011;48941;49.516;8.286;2022-11-12T04:15:58;23.98;;;9.20;;
62848;SDS011;48941;49.516;8.286;2022-11-12T04:18:45;22.45;;;9.65;;
62848;SDS011;48941;49.516;8.286;2022-11-12T04:21:32;25.42;;;10.30;;
62848;SDS011;48941;49.516;8.286;2022-11-12T04:24:21;23.77;;;9.63;;
62848;SDS011;48941;49.516;8.286;2022-11-12T04:27:08;25.25;;;10.35;;
62848;SDS011;48941;49.516;8.286;2022-11-12T04:29:38;32.83;;;10.57;;
62848;SDS011;48941;49.516;8.286;2022-11-12T04:32:25;26.88;;;10.52;;
62848;SDS011;48941;49.516;8.286;2022-11-12T04:34:54;30.35;;;10.82;;
62848;SDS011;48941;49.516;8.286;2022-11-12T04:37:22;39.80;;;10.98;;
62848;SDS011;48941;49.516;8.286;2022-11-12T04:39:50;26.77;;;11.05;;
62848;SDS011;48941;49.516;8.286;2022-11-12T04:42:19;26.58;;;11.50;;
62848;SDS011;48941;49.516;8.286;2022-11-12T04:45:05;28.70;;;11.77;;
62848;SDS011;48941;49.516;8.286;2022-11-12T04:47:36;28.45;;;12.38;;
62848;SDS011;48941;49.516;8.286;2022-11-12T04:50:07;29.83;;;12.43;;
62848;SDS011;48941;49.516;8.286;2022-11-12T04:52:39;30.35;;;11.93;;
62848;SDS011;48941;49.516;8.286;2022-11-12T04:55:07;26.73;;;12.13;;
62848;SDS011;48941;49.516;8.286;2022-11-12T04:57:36;27.88;;;11.20;;
62848;SDS011;48941;49.516;8.286;2022-11-12T05:00:04;26.90;;;11.55;;
62848;SDS011;48941;49.516;8.286;2022-11-12T05:02:33;28.58;;;10.55;;
62848;SDS011;48941;49.516;8.286;2022-11-12T05:05:02;26.88;;;10.63;;
62848;SDS011;48941;49.516;8.286;2022-11-12T05:07:30;28.90;;;9.98;;
62848;SDS011;48941;49.516;8.286;2022-11-12T05:09:58;26.30;;;10.88;;
62848;SDS011;48941;49.516;8.286;2022-11-12T05:12:26;23.05;;;10.85;;
62848;SDS011;48941;49.516;8.286;2022-11-12T05:14:54;37.20;;;11.10;;
62848;SDS011;48941;49.516;8.286;2022-11-12T05:17:21;26.58;;;10.77;;
62848;SDS011;48941;49.516;8.286;2022-11-12T05:19:49;28.67;;;10.82;;
62848;SDS011;48941;49.516;8.286;2022-11-12T05:22:18;24.27;;;10.25;;
62848;SDS011;48941;49.516;8.286;2022-11-12T05:25:06;22.80;;;10.55;;
62848;SDS011;48941;49.516;8.286;2022-11-12T05:27:35;22.05;;;10.63;;
62848;SDS011;48941;49.516;8.286;2022-11-12T05:30:03;34.92;;;10.77;;
62848;SDS011;48941;49.516;8.286;2022-11-12T05:32:31;22.60;;;10.18;;
62848;SDS011;48941;49.516;8.286;2022-11-12T05:34:59;26.55;;;11.13;;
62848;SDS011;48941;49.516;8.286;2022-11-12T05:37:28;22.77;;;11.55;;
62848;SDS011;48941;49.516;8.286;2022-11-12T05:39:56;24.95;;;11.25;;
62848;SDS011;48941;49.516;8.286;2022-11-12T05:42:23;22.88;;;10.85;;
62848;SDS011;48941;49.516;8.286;2022-11-12T05:44:51;23.35;;;11.02;;
62848;SDS011;48941;49.516;8.286;2022-11-12T05:47:19;28.52;;;12.02;;
62848;SDS011;48941;49.516;8.286;2022-11-12T05:49:46;19.80;;;10.57;;
62848;SDS011;48941;49.516;8.286;2022-11-12T05:52:14;28.92;;;11.48;;
62848;SDS011;48941;49.516;8.286;2022-11-12T05:54:43;28.38;;;11.23;;
62848;SDS011;48941;49.516;8.286;2022-11-12T05:57:11;30.70;;;10.00;;
62848;SDS011;48941;49.516;8.286;2022-11-12T05:59:39;30.95;;;10.43;;
62848;SDS011;48941;49.516;8.286;2022-11-12T06:02:06;40.58;;;10.85;;
62848;SDS011;48941;49.516;8.286;2022-11-12T06:04:34;34.88;;;11.25;;
62848;SDS011;48941;49.516;8.286;2022-11-12T06:07:02;24.00;;;10.13;;
62848;SDS011;48941;49.516;8.286;2022-11-12T06:09:30;30.42;;;10.40;;
62848;SDS011;48941;49.516;8.286;2022-11-12T06:11:59;27.10;;;9.77;;
62848;SDS011;48941;49.516;8.286;2022-11-12T06:14:27;36.70;;;9.57;;
62848;SDS011;48941;49.516;8.286;2022-11-12T06:16:55;27.63;;;10.40;;
62848;SDS011;48941;49.516;8.286;2022-11-12T06:19:23;20.65;;;9.57;;
62848;SDS011;48941;49.516;8.286;2022-11-12T06:21:50;31.05;;;10.40;;
62848;SDS011;48941;49.516;8.286;2022-11-12T06:24:18;47.45;;;9.68;;
62848;SDS011;48941;49.516;8.286;2022-11-12T06:26:46;51.92;;;10.27;;
62848;SDS011;48941;49.516;8.286;2022-11-12T06:29:15;35.35;;;9.15;;
62848;SDS011;48941;49.516;8.286;2022-11-12T06:31:43;58.53;;;10.75;;
62848;SDS011;48941;49.516;8.286;2022-11-12T06:34:11;31.35;;;10.98;;
62848;SDS011;48941;49.516;8.286;2022-11-12T06:36:38;52.85;;;13.38;;
62848;SDS011;48941;49.516;8.286;2022-11-12T06:39:06;44.72;;;10.77;;
62848;SDS011;48941;49.516;8.286;2022-11-12T06:41:34;80.78;;;10.65;;
62848;SDS011;48941;49.516;8.286;2022-11-12T06:44:02;59.85;;;10.93;;
62848;SDS011;48941;49.516;8.286;2022-11-12T06:46:31;38.45;;;10.88;;
62848;SDS011;48941;49.516;8.286;2022-11-12T06:48:59;35.50;;;10.85;;
62848;SDS011;48941;49.516;8.286;2022-11-12T06:51:27;76.82;;;12.27;;
62848;SDS011;48941;49.516;8.286;2022-11-12T06:53:54;47.35;;;10.70;;
62848;SDS011;48941;49.516;8.286;2022-11-12T06:56:22;35.03;;;11.02;;
62848;SDS011;48941;49.516;8.286;2022-11-12T06:58:50;44.92;;;11.60;;
62848;SDS011;48941;49.516;8.286;2022-11-12T07:01:17;35.08;;;11.85;;
62848;SDS011;48941;49.516;8.286;2022-11-12T07:03:49;29.83;;;10.55;;
62848;SDS011;48941;49.516;8.286;2022-11-12T07:06:18;31.43;;;8.53;;
62848;SDS011;48941;49.516;8.286;2022-11-12T07:08:46;41.28;;;9.35;;
62848;SDS011;48941;49.516;8.286;2022-11-12T07:11:15;33.15;;;8.82;;
62848;SDS011;48941;49.516;8.286;2022-11-12T07:13:43;19.63;;;7.70;;
62848;SDS011;48941;49.516;8.286;2022-11-12T07:16:12;23.77;;;7.35;;
62848;SDS011;48941;49.516;8.286;2022-11-12T07:18:43;25.30;;;7.30;;
62848;SDS011;48941;49.516;8.286;2022-11-12T07:21:14;23.92;;;7.50;;
62848;SDS011;48941;49.516;8.286;2022-11-12T07:23:43;37.25;;;7.90;;
62848;SDS011;48941;49.516;8.286;2022-11-12T07:26:12;29.20;;;7.43;;
62848;SDS011;48941;49.516;8.286;2022-11-12T07:28:42;23.25;;;8.02;;
62848;SDS011;48941;49.516;8.286;2022-11-12T07:31:10;47.25;;;8.55;;
62848;SDS011;48941;49.516;8.286;2022-11-12T07:33:39;26.05;;;7.35;;
62848;SDS011;48941;49.516;8.286;2022-11-12T07:36:08;35.63;;;8.32;;
62848;SDS011;48941;49.516;8.286;2022-11-12T07:38:39;27.95;;;7.68;;
62848;SDS011;48941;49.516;8.286;2022-11-12T07:41:09;28.02;;;7.57;;
62848;SDS011;48941;49.516;8.286;2022-11-12T07:43:39;37.63;;;6.97;;
62848;SDS011;48941;49.516;8.286;2022-11-12T07:46:09;25.52;;;6.38;;
62848;SDS011;48941;49.516;8.286;2022-11-12T07:48:38;25.90;;;7.10;;
62848;SDS011;48941;49.516;8.286;2022-11-12T07:51:07;48.00;;;7.60;;
62848;SDS011;48941;49.516;8.286;2022-11-12T07:56:09;26.23;;;6.70;;
62848;SDS011;48941;49.516;8.286;2022-11-12T07:58:38;41.10;;;7.45;;
62848;SDS011;48941;49.516;8.286;2022-11-12T08:01:06;38.03;;;7.13;;
62848;SDS011;48941;49.516;8.286;2022-11-12T08:03:34;37.35;;;7.15;;
62848;SDS011;48941;49.516;8.286;2022-11-12T08:06:03;27.98;;;6.45;;
62848;SDS011;48941;49.516;8.286;2022-11-12T08:08:31;23.50;;;8.05;;
62848;SDS011;48941;49.516;8.286;2022-11-12T08:11:00;36.97;;;6.75;;
62848;SDS011;48941;49.516;8.286;2022-11-12T08:13:28;32.13;;;7.00;;
62848;SDS011;48941;49.516;8.286;2022-11-12T08:15:56;28.27;;;7.38;;
62848;SDS011;48941;49.516;8.286;2022-11-12T08:18:24;26.13;;;7.57;;
62848;SDS011;48941;49.516;8.286;2022-11-12T08:20:57;39.42;;;8.63;;
62848;SDS011;48941;49.516;8.286;2022-11-12T08:23:26;30.73;;;8.77;;
62848;SDS011;48941;49.516;8.286;2022-11-12T08:25:56;28.70;;;9.80;;
62848;SDS011;48941;49.516;8.286;2022-11-12T08:28:26;39.78;;;9.38;;
62848;SDS011;48941;49.516;8.286;2022-11-12T08:30:55;24.08;;;9.52;;
62848;SDS011;48941;49.516;8.286;2022-11-12T08:33:23;23.75;;;8.93;;
62848;SDS011;48941;49.516;8.286;2022-11-12T08:35:51;29.27;;;9.73;;
62848;SDS011;48941;49.516;8.286;2022-11-12T08:38:18;35.63;;;9.07;;
62848;SDS011;48941;49.516;8.286;2022-11-12T08:40:46;23.25;;;8.93;;
62848;SDS011;48941;49.516;8.286;2022-11-12T08:43:14;28.33;;;9.75;;
62848;SDS011;48941;49.516;8.286;2022-11-12T08:45:43;27.98;;;9.15;;
62848;SDS011;48941;49.516;8.286;2022-11-12T08:48:12;27.75;;;9.18;;
62848;SDS011;48941;49.516;8.286;2022-11-12T08:50:40;23.73;;;9.43;;
62848;SDS011;48941;49.516;8.286;2022-11-12T08:53:10;37.30;;;9.75;;
62848;SDS011;48941;49.516;8.286;2022-11-12T08:55:39;16.27;;;9.23;;
62848;SDS011;48941;49.516;8.286;2022-11-12T08:58:07;26.35;;;9.38;;
62848;SDS011;48941;49.516;8.286;2022-11-12T09:00:36;22.83;;;10.32;;
62848;SDS011;48941;49.516;8.286;2022-11-12T09:03:11;29.63;;;10.60;;
62848;SDS011;48941;49.516;8.286;2022-11-12T09:05:40;26.38;;;9.18;;
62848;SDS011;48941;49.516;8.286;2022-11-12T09:08:09;25.88;;;9.55;;
62848;SDS011;48941;49.516;8.286;2022-11-12T09:10:39;30.60;;;9.93;;
62848;SDS011;48941;49.516;8.286;2022-11-12T09:13:07;19.40;;;9.15;;
62848;SDS011;48941;49.516;8.286;2022-11-12T09:15:35;27.08;;;9.18;;
62848;SDS011;48941;49.516;8.286;2022-11-12T09:18:05;16.13;;;8.20;;
62848;SDS011;48941;49.516;8.286;2022-11-12T09:20:36;19.50;;;8.75;;
62848;SDS011;48941;49.516;8.286;2022-11-12T09:23:05;19.55;;;9.18;;
62848;SDS011;48941;49.516;8.286;2022-11-12T09:25:34;25.70;;;10.70;;
62848;SDS011;48941;49.516;8.286;2022-11-12T09:28:06;19.02;;;8.98;;
62848;SDS011;48941;49.516;8.286;2022-11-12T09:30:35;15.98;;;8.00;;
62848;SDS011;48941;49.516;8.286;2022-11-12T09:33:04;20.45;;;9.35;;
62848;SDS011;48941;49.516;8.286;2022-11-12T09:35:31;19.60;;;11.32;;
62848;SDS011;48941;49.516;8.286;2022-11-12T09:38:00;20.27;;;9.68;;
62848;SDS011;48941;49.516;8.286;2022-11-12T09:40:31;25.25;;;13.85;;
62848;SDS011;48941;49.516;8.286;2022-11-12T09:43:09;18.42;;;9.32;;
62848;SDS011;48941;49.516;8.286;2022-11-12T09:45:43;22.38;;;9.55;;
62848;SDS011;48941;49.516;8.286;2022-11-12T09:48:34;20.52;;;9.32;;
62848;SDS011;48941;49.516;8.286;2022-11-12T09:51:09;24.70;;;9.80;;
62848;SDS011;48941;49.516;8.286;2022-11-12T09:53:44;21.23;;;11.20;;
62848;SDS011;48941;49.516;8.286;2022-11-12T09:56:18;26.25;;;11.70;;
62848;SDS011;48941;49.516;8.286;2022-11-12T09:58:48;23.45;;;11.45;;
62848;SDS011;48941;49.516;8.286;2022-11-12T10:01:17;20.17;;;11.02;;
62848;SDS011;48941;49.516;8.286;2022-11-12T10:03:52;25.08;;;11.00;;
62848;SDS011;48941;49.516;8.286;2022-11-12T10:06:26;22.88;;;12.02;;
62848;SDS011;48941;49.516;8.286;2022-11-12T10:09:01;23.13;;;12.02;;
62848;SDS011;48941;49.516;8.286;2022-11-12T10:11:42;23.65;;;11.18;;
62848;SDS011;48941;49.516;8.286;2022-11-12T10:14:51;26.27;;;11.70;;
62848;SDS011;48941;49.516;8.286;2022-11-12T10:17:50;26.80;;;11.65;;
62848;SDS011;48941;49.516;8.286;2022-11-12T10:20:24;23.58;;;11.18;;
62848;SDS011;48941;49.516;8.286;2022-11-12T10:23:13;24.40;;;11.23;;
62848;SDS011;48941;49.516;8.286;2022-11-12T10:25:45;23.25;;;12.32;;
62848;SDS011;48941;49.516;8.286;2022-11-12T10:28:19;22.80;;;11.65;;
62848;SDS011;48941;49.516;8.286;2022-11-12T10:31:04;21.02;;;10.88;;
62848;SDS011;48941;49.516;8.286;2022-11-12T10:33:37;24.30;;;11.65;;
62848;SDS011;48941;49.516;8.286;2022-11-12T10:36:14;24.27;;;11.40;;
62848;SDS011;48941;49.516;8.286;2022-11-12T10:38:51;22.33;;;10.80;;
62848;SDS011;48941;49.516;8.286;2022-11-12T10:41:23;21.30;;;11.13;;
62848;SDS011;48941;49.516;8.286;2022-11-12T10:43:53;24.88;;;11.48;;
62848;SDS011;48941;49.516;8.286;2022-11-12T10:46:25;22.13;;;11.43;;
62848;SDS011;48941;49.516;8.286;2022-11-12T10:48:56;21.30;;;11.55;;
62848;SDS011;48941;49.516;8.286;2022-11-12T10:51:27;18.42;;;10.07;;
62848;SDS011;48941;49.516;8.286;2022-11-12T10:53:57;19.83;;;10.57;;
62848;SDS011;48941;49.516;8.286;2022-11-12T10:56:28;19.52;;;10.45;;
62848;SDS011;48941;49.516;8.286;2022-11-12T10:59:07;19.77;;;10.27;;
62848;SDS011;48941;49.516;8.286;2022-11-12T11:01:36;19.55;;;10.57;;
62848;SDS011;48941;49.516;8.286;2022-11-12T11:04:14;19.60;;;10.38;;
62848;SDS011;48941;49.516;8.286;2022-11-12T11:07:02;19.70;;;11.40;;
62848;SDS011;48941;49.516;8.286;2022-11-12T11:09:32;19.77;;;11.38;;
62848;SDS011;48941;49.516;8.286;2022-11-12T11:12:02;19.33;;;10.50;;
62848;SDS011;48941;49.516;8.286;2022-11-12T11:14:32;18.00;;;10.48;;
62848;SDS011;48941;49.516;8.286;2022-11-12T11:17:02;19.50;;;10.85;;
62848;SDS011;48941;49.516;8.286;2022-11-12T11:19:35;17.85;;;11.25;;
62848;SDS011;48941;49.516;8.286;2022-11-12T11:22:21;19.02;;;11.68;;
62848;SDS011;48941;49.516;8.286;2022-11-12T11:25:02;20.50;;;12.07;;
62848;SDS011;48941;49.516;8.286;2022-11-12T11:27:42;26.83;;;13.30;;
62848;SDS011;48941;49.516;8.286;2022-11-12T11:30:22;24.38;;;13.00;;
62848;SDS011;48941;49.516;8.286;2022-11-12T11:32:56;21.52;;;12.52;;
62848;SDS011;48941;49.516;8.286;2022-11-12T11:35:40;19.83;;;11.77;;
62848;SDS011;48941;49.516;8.286;2022-11-12T11:38:28;22.00;;;12.55;;
62848;SDS011;48941;49.516;8.286;2022-11-12T11:41:03;20.47;;;11.70;;
62848;SDS011;48941;49.516;8.286;2022-11-12T11:44:02;22.77;;;12.73;;
62848;SDS011;48941;49.516;8.286;2022-11-12T11:46:44;20.42;;;12.63;;
62848;SDS011;48941;49.516;8.286;2022-11-12T11:49:34;22.02;;;13.15;;
62848;SDS011;48941;49.516;8.286;2022-11-12T11:52:22;21.45;;;13.02;;
62848;SDS011;48941;49.516;8.286;2022-11-12T11:55:03;21.83;;;13.57;;
62848;SDS011;48941;49.516;8.286;2022-11-12T11:57:42;22.55;;;13.25;;
62848;SDS011;48941;49.516;8.286;2022-11-12T12:00:21;24.45;;;14.25;;
62848;SDS011;48941;49.516;8.286;2022-11-12T12:02:58;27.00;;;14.23;;
62848;SDS011;48941;49.516;8.286;2022-11-12T12:05:39;24.70;;;14.35;;
62848;SDS011;48941;49.516;8.286;2022-11-12T12:08:10;25.27;;;15.37;;
62848;SDS011;48941;49.516;8.286;2022-11-12T12:10:44;29.85;;;17.02;;
62848;SDS011;48941;49.516;8.286;2022-11-12T12:13:35;23.90;;;14.95;;
62848;SDS011;48941;49.516;8.286;2022-11-12T12:16:34;24.48;;;14.68;;
62848;SDS011;48941;49.516;8.286;2022-11-12T12:19:12;26.98;;;15.10;;
62848;SDS011;48941;49.516;8.286;2022-11-12T12:21:50;28.58;;;14.63;;
62848;SDS011;48941;49.516;8.286;2022-11-12T12:24:20;23.23;;;14.02;;
62848;SDS011;48941;49.516;8.286;2022-11-12T12:26:51;25.77;;;15.57;;
62848;SDS011;48941;49.516;8.286;2022-11-12T12:29:22;23.27;;;14.63;;
62848;SDS011;48941;49.516;8.286;2022-11-12T12:31:58;25.08;;;15.32;;
62848;SDS011;48941;49.516;8.286;2022-11-12T12:34:32;23.80;;;14.70;;
62848;SDS011;48941;49.516;8.286;2022-11-12T12:37:04;25.13;;;15.80;;
62848;SDS011;48941;49.516;8.286;2022-11-12T12:39:37;25.25;;;15.35;;
62848;SDS011;48941;49.516;8.286;2022-11-12T12:42:14;23.75;;;14.52;;
62848;SDS011;48941;49.516;8.286;2022-11-12T12:44:48;23.25;;;13.82;;
62848;SDS011;48941;49.516;8.286;2022-11-12T12:47:29;23.42;;;13.80;;
62848;SDS011;48941;49.516;8.286;2022-11-12T12:50:01;23.88;;;13.75;;
62848;SDS011;48941;49.516;8.286;2022-11-12T12:55:35;20.40;;;12.50;;
62848;SDS011;48941;49.516;8.286;2022-11-12T12:58:07;20.15;;;11.65;;
62848;SDS011;48941;49.516;8.286;2022-11-12T13:00:47;17.02;;;10.73;;
62848;SDS011;48941;49.516;8.286;2022-11-12T13:06:07;17.90;;;11.40;;
62848;SDS011;48941;49.516;8.286;2022-11-12T13:08:41;18.75;;;11.77;;
62848;SDS011;48941;49.516;8.286;2022-11-12T13:11:09;18.67;;;11.65;;
62848;SDS011;48941;49.516;8.286;2022-11-12T13:13:37;20.45;;;12.02;;
62848;SDS011;48941;49.516;8.286;2022-11-12T13:16:05;16.98;;;12.02;;
62848;SDS011;48941;49.516;8.286;2022-11-12T13:21:28;19.58;;;13.27;;
62848;SDS011;48941;49.516;8.286;2022-11-12T13:24:00;19.35;;;12.45;;
62848;SDS011;48941;49.516;8.286;2022-11-12T13:26:43;20.55;;;12.93;;
62848;SDS011;48941;49.516;8.286;2022-11-12T13:29:20;20.55;;;12.93;;
62848;SDS011;48941;49.516;8.286;2022-11-12T13:32:05;21.00;;;13.32;;
62848;SDS011;48941;49.516;8.286;2022-11-12T13:38:03;19.23;;;12.40;;
62848;SDS011;48941;49.516;8.286;2022-11-12T13:40:39;20.33;;;12.98;;
62848;SDS011;48941;49.516;8.286;2022-11-12T13:43:11;22.60;;;13.07;;
62848;SDS011;48941;49.516;8.286;2022-11-12T13:45:45;18.42;;;11.35;;
62848;SDS011;48941;49.516;8.286;2022-11-12T13:48:16;19.10;;;11.73;;
62848;SDS011;48941;49.516;8.286;2022-11-12T13:50:51;17.85;;;11.65;;
62848;SDS011;48941;49.516;8.286;2022-11-12T13:53:23;19.38;;;12.63;;
62848;SDS011;48941;49.516;8.286;2022-11-12T13:55:53;18.52;;;11.63;;
62848;SDS011;48941;49.516;8.286;2022-11-12T13:58:25;20.58;;;12.27;;
62848;SDS011;48941;49.516;8.286;2022-11-12T14:00:55;20.85;;;12.38;;
62848;SDS011;48941;49.516;8.286;2022-11-12T14:03:25;17.88;;;12.02;;
62848;SDS011;48941;49.516;8.286;2022-11-12T14:05:56;19.00;;;12.32;;
62848;SDS011;48941;49.516;8.286;2022-11-12T14:08:45;20.58;;;11.98;;
62848;SDS011;48941;49.516;8.286;2022-11-12T14:11:29;20.20;;;12.80;;
62848;SDS011;48941;49.516;8.286;2022-11-12T14:14:10;19.98;;;11.93;;
62848;SDS011;48941;49.516;8.286;2022-11-12T14:16:51;17.77;;;12.05;;
62848;SDS011;48941;49.516;8.286;2022-11-12T14:19:40;18.40;;;12.18;;
62848;SDS011;48941;49.516;8.286;2022-11-12T14:22:21;19.80;;;12.15;;
62848;SDS011;48941;49.516;8.286;2022-11-12T14:24:51;19.48;;;12.40;;
62848;SDS011;48941;49.516;8.286;2022-11-12T14:27:32;20.33;;;12.30;;
62848;SDS011;48941;49.516;8.286;2022-11-12T14:30:15;19.80;;;12.63;;
62848;SDS011;48941;49.516;8.286;2022-11-12T14:32:47;22.85;;;13.27;;
62848;SDS011;48941;49.516;8.286;2022-11-12T14:35:25;20.23;;;13.27;;
62848;SDS011;48941;49.516;8.286;2022-11-12T14:37:58;23.60;;;13.80;;
62848;SDS011;48941;49.516;8.286;2022-11-12T14:40:32;24.25;;;13.50;;
62848;SDS011;48941;49.516;8.286;2022-11-12T14:43:02;23.85;;;13.88;;
62848;SDS011;48941;49.516;8.286;2022-11-12T14:45:31;23.17;;;13.98;;
62848;SDS011;48941;49.516;8.286;2022-11-12T14:48:00;27.10;;;14.35;;
62848;SDS011;48941;49.516;8.286;2022-11-12T14:50:29;24.25;;;13.73;;
62848;SDS011;48941;49.516;8.286;2022-11-12T14:53:06;31.88;;;13.93;;
62848;SDS011;48941;49.516;8.286;2022-11-12T14:55:49;22.70;;;13.38;;
62848;SDS011;48941;49.516;8.286;2022-11-12T14:58:19;24.90;;;14.13;;
62848;SDS011;48941;49.516;8.286;2022-11-12T15:00:49;28.75;;;14.40;;
62848;SDS011;48941;49.516;8.286;2022-11-12T15:03:19;22.73;;;13.70;;
62848;SDS011;48941;49.516;8.286;2022-11-12T15:05:54;24.00;;;14.32;;
62848;SDS011;48941;49.516;8.286;2022-11-12T15:08:28;24.77;;;13.70;;